Terminal Aerodrome Forecast
Issued by NWS

Current Version | Previous Version | Text Only | Print | Product List | Glossary Off
Versions: 1 2 3 4 5 6 7 8 9 10 11 12 13 14 15 16 17 18 19 20 21 22 23 24

000
FTUS41 KRLX 221739
TAFCKB
TAF
KCKB 221739Z 2218/2318 17008G16KT P6SM SCT100 BKN200
     FM222100 17007KT P6SM SCT100 BKN200
     FM230200 17007KT P6SM VCSH BKN080 WS020/19045KT
     FM230800 20010G20KT 5SM -SHRA OVC030
     FM231000 23010G18KT P6SM BKN035
     FM231500 24015G25KT P6SM BKN030=

USA.gov is the U.S. government's official web portal to all federal, state and local government web resources and services.